createdAt,value
2018-11-02T00:01:50.932Z,23.93
2018-11-02T00:04:20.955Z,24.77
2018-11-02T00:06:50.393Z,24.10
2018-11-02T00:09:19.832Z,25.63
2018-11-02T00:11:49.549Z,24.23
2018-11-02T00:14:19.085Z,24.67
2018-11-02T00:16:48.510Z,22.87
2018-11-02T00:19:22.166Z,26.27
2018-11-02T00:21:51.542Z,25.27
2018-11-02T00:24:21.112Z,25.27
2018-11-02T00:26:50.551Z,23.80
2018-11-02T00:29:19.779Z,24.20
2018-11-02T00:31:49.195Z,24.17
2018-11-02T00:34:18.824Z,23.70
2018-11-02T00:36:48.362Z,22.87
2018-11-02T00:39:17.770Z,24.53
2018-11-02T00:41:47.207Z,26.03
2018-11-02T00:44:16.929Z,25.07
2018-11-02T00:46:46.326Z,26.93
2018-11-02T00:49:15.938Z,28.50
2018-11-02T00:51:46.176Z,27.70
2018-11-02T00:54:15.639Z,29.60
2018-11-02T00:56:45.067Z,31.37
2018-11-02T00:59:14.391Z,32.03
2018-11-02T01:01:44.009Z,30.60
2018-11-02T01:04:13.738Z,30.87
2018-11-02T01:06:43.639Z,31.70
2018-11-02T01:12:11.334Z,32.47
2018-11-02T01:14:40.753Z,32.27
2018-11-02T01:17:10.082Z,33.90
2018-11-02T01:19:39.548Z,32.83
2018-11-02T01:22:09.144Z,34.90
2018-11-02T01:24:39.006Z,34.03
2018-11-02T01:27:08.634Z,36.50
2018-11-02T01:29:38.310Z,36.23
2018-11-02T01:32:07.838Z,34.63
2018-11-02T01:34:37.400Z,36.20
2018-11-02T01:37:07.721Z,36.47
2018-11-02T01:39:37.410Z,36.80
2018-11-02T01:42:06.658Z,39.03
2018-11-02T01:44:36.289Z,38.60
2018-11-02T01:47:05.929Z,38.53
2018-11-02T01:49:35.265Z,37.00
2018-11-02T01:52:04.657Z,37.47
2018-11-02T01:54:33.870Z,36.77
2018-11-02T01:57:03.405Z,35.90
2018-11-02T01:59:32.841Z,38.17
2018-11-02T02:02:02.378Z,39.13
2018-11-02T02:04:31.797Z,38.33
2018-11-02T02:07:01.458Z,37.27
2018-11-02T02:09:31.042Z,37.13
2018-11-02T02:12:00.785Z,37.57
2018-11-02T02:14:30.356Z,37.83
2018-11-02T02:17:00.315Z,37.83
2018-11-02T02:19:30.146Z,35.93
2018-11-02T02:22:00.081Z,35.73
2018-11-02T02:24:29.538Z,35.87
2018-11-02T02:26:59.028Z,34.37
2018-11-02T02:29:28.617Z,36.07
2018-11-02T02:31:57.950Z,34.37
2018-11-02T02:34:27.272Z,34.07
2018-11-02T02:36:56.803Z,34.63
2018-11-02T02:39:26.167Z,35.37
2018-11-02T02:41:55.634Z,34.43
2018-11-02T02:44:25.088Z,33.67
2018-11-02T02:46:54.986Z,34.63
2018-11-02T02:49:24.373Z,35.63
2018-11-02T02:51:53.935Z,34.20
2018-11-02T02:54:24.438Z,32.23
2018-11-02T02:56:55.030Z,33.50
2018-11-02T02:59:25.781Z,34.30
2018-11-02T03:01:55.980Z,34.73
2018-11-02T03:04:25.489Z,31.73
2018-11-02T03:06:55.021Z,30.40
2018-11-02T03:09:25.121Z,32.67
2018-11-02T03:11:54.417Z,30.67
2018-11-02T03:14:23.982Z,30.03
2018-11-02T03:16:53.413Z,29.90
2018-11-02T03:19:22.838Z,29.03
2018-11-02T03:21:52.340Z,28.60
2018-11-02T03:24:21.719Z,28.43
2018-11-02T03:26:51.547Z,29.00
2018-11-02T03:29:20.968Z,26.20
2018-11-02T03:31:50.500Z,26.40
2018-11-02T03:34:20.372Z,27.43
2018-11-02T03:36:49.798Z,26.77
2018-11-02T03:39:20.446Z,26.43
2018-11-02T03:41:50.031Z,26.27
2018-11-02T03:44:19.709Z,24.70
2018-11-02T03:46:49.207Z,24.63
2018-11-02T03:49:19.340Z,25.10
2018-11-02T03:51:49.118Z,24.33
2018-11-02T03:54:18.737Z,24.67
2018-11-02T03:56:48.555Z,23.80
2018-11-02T03:59:18.632Z,24.53
2018-11-02T04:01:48.062Z,22.93
2018-11-02T04:04:18.020Z,23.27
2018-11-02T04:06:47.706Z,21.53
2018-11-02T04:09:17.603Z,22.63
2018-11-02T04:11:47.137Z,21.13
2018-11-02T04:14:17.041Z,21.43
2018-11-02T04:16:47.245Z,21.63
2018-11-02T04:19:17.473Z,19.17
2018-11-02T04:21:48.832Z,19.93
2018-11-02T04:24:18.652Z,21.57
2018-11-02T04:26:49.072Z,20.37
2018-11-02T04:29:18.935Z,19.70
2018-11-02T04:31:48.862Z,19.37
2018-11-02T04:34:18.963Z,20.60
2018-11-02T04:36:48.903Z,20.60
2018-11-02T04:39:18.366Z,20.70
2018-11-02T04:41:49.097Z,20.37
2018-11-02T04:44:18.679Z,20.00
2018-11-02T04:46:48.297Z,19.03
2018-11-02T04:49:17.752Z,19.57
2018-11-02T04:51:46.982Z,19.73
2018-11-02T04:54:17.437Z,19.83
2018-11-02T04:56:46.887Z,18.63
2018-11-02T04:59:16.858Z,19.40
2018-11-02T05:01:46.588Z,18.30
2018-11-02T05:04:16.083Z,18.83
2018-11-02T05:06:45.956Z,18.73
2018-11-02T05:09:15.656Z,18.93
2018-11-02T05:11:45.236Z,20.03
2018-11-02T05:14:14.870Z,18.47
2018-11-02T05:16:44.633Z,18.00
2018-11-02T05:19:14.318Z,19.47
2018-11-02T05:21:44.211Z,19.23
2018-11-02T05:24:15.004Z,18.40
2018-11-02T05:26:44.499Z,18.40
2018-11-02T05:29:13.855Z,18.60
2018-11-02T05:31:43.763Z,19.90
2018-11-02T05:34:13.653Z,19.57
2018-11-02T05:36:43.146Z,19.23
2018-11-02T05:39:13.639Z,18.80
2018-11-02T05:41:42.896Z,19.40
2018-11-02T05:44:12.513Z,18.87
2018-11-02T05:46:42.054Z,19.10
2018-11-02T05:49:12.465Z,18.53
2018-11-02T05:51:41.821Z,18.60
2018-11-02T05:54:11.476Z,18.93
2018-11-02T05:56:40.822Z,17.87
2018-11-02T05:59:10.471Z,18.87
2018-11-02T06:01:40.044Z,19.13
2018-11-02T06:04:09.633Z,19.47
2018-11-02T06:06:39.280Z,17.80
2018-11-02T06:09:09.170Z,18.73
2018-11-02T06:11:38.925Z,17.90
2018-11-02T06:14:08.142Z,17.23
2018-11-02T06:16:37.399Z,18.00
2018-11-02T06:19:06.902Z,17.93
2018-11-02T06:21:36.213Z,17.67
2018-11-02T06:24:06.043Z,18.50
2018-11-02T06:26:35.705Z,17.70
2018-11-02T06:29:07.318Z,17.00
2018-11-02T06:31:36.883Z,17.50
2018-11-02T06:34:07.172Z,17.23
2018-11-02T06:36:36.972Z,16.30
2018-11-02T06:39:08.648Z,17.07
2018-11-02T06:41:37.991Z,17.40
2018-11-02T06:44:07.292Z,16.37
2018-11-02T06:46:36.649Z,16.90
2018-11-02T06:49:06.207Z,16.80
2018-11-02T06:51:36.638Z,17.00
2018-11-02T06:54:06.532Z,17.70
2018-11-02T06:56:35.878Z,17.77
2018-11-02T06:59:06.178Z,18.07
2018-11-02T07:01:36.171Z,17.50
2018-11-02T07:04:05.900Z,17.87
2018-11-02T07:06:35.405Z,16.93
2018-11-02T07:09:06.888Z,17.80
2018-11-02T07:11:36.319Z,17.70
2018-11-02T07:14:07.061Z,17.10
2018-11-02T07:16:36.397Z,17.17
2018-11-02T07:19:06.962Z,18.40
2018-11-02T07:21:37.784Z,16.33
2018-11-02T07:24:08.704Z,16.80
2018-11-02T07:26:39.433Z,16.60
2018-11-02T07:29:10.885Z,16.17
2018-11-02T07:31:41.417Z,16.27
2018-11-02T07:34:11.574Z,15.40
2018-11-02T07:36:41.260Z,16.23
2018-11-02T07:39:12.023Z,14.23
2018-11-02T07:41:42.052Z,16.30
2018-11-02T07:44:12.296Z,16.00
2018-11-02T07:46:42.911Z,15.00
2018-11-02T07:49:12.948Z,14.87
2018-11-02T07:51:42.392Z,14.63
2018-11-02T07:54:12.417Z,15.50
2018-11-02T07:56:42.705Z,14.17
2018-11-02T07:59:13.300Z,15.47
2018-11-02T08:01:43.333Z,14.30
2018-11-02T08:04:12.779Z,13.97
2018-11-02T08:06:43.434Z,14.17
2018-11-02T08:09:14.230Z,14.17
2018-11-02T08:11:44.296Z,13.43
2018-11-02T08:14:13.550Z,14.53
2018-11-02T08:16:42.915Z,14.17
2018-11-02T08:19:12.792Z,13.90
2018-11-02T08:21:42.206Z,14.87
2018-11-02T08:24:12.132Z,14.00
2018-11-02T08:26:41.803Z,13.90
2018-11-02T08:29:11.240Z,14.10
2018-11-02T08:31:40.523Z,13.63
2018-11-02T08:34:10.303Z,14.87
2018-11-02T08:36:39.755Z,14.20
2018-11-02T08:39:10.555Z,14.87
2018-11-02T08:41:40.413Z,14.40
2018-11-02T08:44:10.236Z,14.47
2018-11-02T08:46:39.672Z,15.47
2018-11-02T08:49:09.548Z,14.57
2018-11-02T08:51:39.477Z,14.73
2018-11-02T08:54:09.284Z,15.23
2018-11-02T08:56:39.641Z,14.17
2018-11-02T08:59:11.721Z,13.47
2018-11-02T09:01:41.312Z,14.17
2018-11-02T09:04:10.949Z,15.17
2018-11-02T09:06:40.446Z,13.60
2018-11-02T09:09:11.035Z,16.10
2018-11-02T09:11:40.747Z,15.07
2018-11-02T09:14:10.302Z,16.13
2018-11-02T09:16:39.907Z,16.27
2018-11-02T09:19:09.303Z,15.57
2018-11-02T09:21:38.789Z,17.13
2018-11-02T09:24:08.560Z,16.57
2018-11-02T09:26:38.038Z,15.87
2018-11-02T09:29:07.757Z,16.53
2018-11-02T09:31:37.658Z,16.13
2018-11-02T09:34:07.530Z,16.13
2018-11-02T09:36:36.931Z,16.57
2018-11-02T09:39:09.503Z,15.27
2018-11-02T09:41:39.332Z,16.13
2018-11-02T09:44:08.914Z,14.93
2018-11-02T09:46:38.525Z,14.53
2018-11-02T09:49:08.836Z,14.03
2018-11-02T09:51:38.513Z,13.23
2018-11-02T09:54:08.483Z,12.30
2018-11-02T09:56:38.986Z,14.00
2018-11-02T09:59:08.367Z,12.57
2018-11-02T10:01:37.688Z,13.53
2018-11-02T10:04:07.314Z,11.63
2018-11-02T10:06:36.864Z,12.43
2018-11-02T10:09:08.502Z,11.80
2018-11-02T10:11:38.202Z,10.13
2018-11-02T10:14:08.223Z,10.13
2018-11-02T10:16:37.907Z,9.23
2018-11-02T10:19:08.252Z,7.87
2018-11-02T10:21:38.007Z,8.00
2018-11-02T10:24:08.309Z,6.70
2018-11-02T10:26:38.536Z,6.60
2018-11-02T10:29:08.067Z,7.10
2018-11-02T10:31:37.688Z,5.30
2018-11-02T10:34:07.722Z,5.87
2018-11-02T10:36:38.325Z,5.13
2018-11-02T10:39:10.297Z,3.97
2018-11-02T10:41:46.124Z,3.90
2018-11-02T10:44:17.325Z,3.33
2018-11-02T10:46:47.186Z,3.53
2018-11-02T10:49:16.493Z,1.90
2018-11-02T10:51:45.764Z,2.30
2018-11-02T10:54:14.998Z,1.97
2018-11-02T10:56:44.176Z,2.27
2018-11-02T10:59:13.428Z,1.70
2018-11-02T11:01:49.309Z,1.87
2018-11-02T11:04:18.938Z,1.33
2018-11-02T11:06:48.395Z,1.83
2018-11-02T11:09:17.678Z,2.63
2018-11-02T11:11:47.108Z,2.40
2018-11-02T11:14:16.022Z,2.20
2018-11-02T11:16:45.217Z,1.93
2018-11-02T11:19:14.437Z,1.70
2018-11-02T11:21:43.777Z,2.03
2018-11-02T11:24:14.698Z,2.10
2018-11-02T11:26:44.282Z,2.10
2018-11-02T11:29:13.687Z,2.47
2018-11-02T11:31:42.796Z,2.03
2018-11-02T11:34:12.332Z,2.83
2018-11-02T11:36:41.617Z,4.10
2018-11-02T11:39:13.185Z,4.93
2018-11-02T11:41:42.482Z,2.67
2018-11-02T11:44:11.779Z,2.63
2018-11-02T11:46:41.132Z,1.87
2018-11-02T11:49:10.789Z,2.97
2018-11-02T11:51:40.078Z,2.47
2018-11-02T11:54:09.307Z,1.80
2018-11-02T11:56:38.764Z,1.80
2018-11-02T11:59:07.956Z,1.90
2018-11-02T12:01:37.173Z,1.60
2018-11-02T12:04:06.583Z,1.87
2018-11-02T12:06:35.950Z,1.60
2018-11-02T12:09:06.606Z,1.40
2018-11-02T12:11:35.813Z,2.50
2018-11-02T12:14:05.086Z,1.57
2018-11-02T12:16:34.166Z,2.20
2018-11-02T12:19:03.560Z,1.70
2018-11-02T12:21:32.785Z,2.13
2018-11-02T12:24:02.154Z,2.10
2018-11-02T12:26:31.549Z,1.60
2018-11-02T12:29:02.016Z,1.73
2018-11-02T12:31:31.331Z,1.60
2018-11-02T12:34:00.607Z,1.57
2018-11-02T12:36:30.201Z,1.53
2018-11-02T12:38:59.770Z,1.50
2018-11-02T12:41:28.881Z,1.30
2018-11-02T12:43:58.341Z,1.10
2018-11-02T12:46:27.425Z,1.40
2018-11-02T12:48:57.451Z,1.40
2018-11-02T12:51:26.416Z,1.27
2018-11-02T12:53:55.635Z,1.40
2018-11-02T12:56:24.751Z,1.30
2018-11-02T12:58:53.863Z,1.27
2018-11-02T13:01:22.930Z,1.77
2018-11-02T13:03:52.091Z,1.90
2018-11-02T13:06:21.174Z,1.33
2018-11-02T13:08:50.449Z,1.27
2018-11-02T13:11:19.539Z,1.40
2018-11-02T13:13:48.708Z,2.40
2018-11-02T13:16:17.910Z,1.63
2018-11-02T13:18:47.063Z,1.80
2018-11-02T13:21:16.261Z,1.57
2018-11-02T13:23:45.284Z,1.57
2018-11-02T13:26:14.796Z,1.73
2018-11-02T13:28:43.989Z,1.47
2018-11-02T13:31:13.263Z,1.97
2018-11-02T13:33:42.401Z,1.43
2018-11-02T13:36:12.853Z,1.53
2018-11-02T13:38:42.473Z,1.40
2018-11-02T13:41:11.869Z,1.40
2018-11-02T13:43:41.112Z,2.17
2018-11-02T13:46:10.283Z,1.70
2018-11-02T13:48:39.444Z,1.23
2018-11-02T13:51:08.852Z,1.37
2018-11-02T13:53:38.120Z,2.00
2018-11-02T13:56:07.300Z,1.90
2018-11-02T13:58:36.927Z,2.00
2018-11-02T14:01:06.557Z,1.53
2018-11-02T14:03:35.984Z,1.43
2018-11-02T14:06:05.433Z,1.43
2018-11-02T14:08:34.683Z,2.07
2018-11-02T14:11:04.057Z,1.67
2018-11-02T14:13:33.268Z,2.17
2018-11-02T14:16:02.411Z,2.00
2018-11-02T14:18:31.767Z,1.37
2018-11-02T14:21:00.970Z,2.70
2018-11-02T14:23:30.124Z,3.10
2018-11-02T14:25:59.451Z,2.30
2018-11-02T14:28:28.808Z,2.40
2018-11-02T14:30:58.042Z,1.67
2018-11-02T14:33:27.353Z,2.20
2018-11-02T14:35:56.762Z,2.87
2018-11-02T14:38:26.198Z,2.20
2018-11-02T14:40:57.599Z,1.57
2018-11-02T14:43:27.147Z,1.40
2018-11-02T14:45:56.255Z,1.67
2018-11-02T14:48:25.445Z,1.40
2018-11-02T14:50:54.852Z,1.37
2018-11-02T14:53:24.388Z,1.70
2018-11-02T14:55:54.187Z,1.67
2018-11-02T14:58:23.532Z,2.47
2018-11-02T15:00:52.893Z,1.20
2018-11-02T15:03:25.637Z,1.20
2018-11-02T15:05:55.133Z,1.40
2018-11-02T15:08:24.439Z,1.70
2018-11-02T15:10:53.730Z,1.37
2018-11-02T15:13:23.073Z,1.13
2018-11-02T15:15:52.334Z,1.30
2018-11-02T15:18:21.658Z,2.53
2018-11-02T15:20:51.112Z,1.50
2018-11-02T15:23:20.289Z,1.33
2018-11-02T15:25:49.426Z,1.40
2018-11-02T15:28:18.657Z,1.17
2018-11-02T15:30:47.811Z,1.87
2018-11-02T15:33:16.941Z,1.27
2018-11-02T15:35:46.100Z,1.83
2018-11-02T15:38:15.195Z,1.90
2018-11-02T15:40:44.301Z,2.60
2018-11-02T15:43:13.383Z,1.00
2018-11-02T15:45:42.423Z,1.77
2018-11-02T15:48:11.538Z,1.13
2018-11-02T15:50:40.339Z,1.93
2018-11-02T15:53:09.506Z,1.67
2018-11-02T15:55:38.672Z,1.50
2018-11-02T15:58:07.842Z,1.30
2018-11-02T16:00:37.239Z,1.47
2018-11-02T16:03:06.409Z,1.37
2018-11-02T16:05:35.601Z,1.30
2018-11-02T16:08:05.809Z,1.47
2018-11-02T16:10:34.953Z,2.00
2018-11-02T16:13:04.146Z,2.00
2018-11-02T16:15:33.291Z,3.03
2018-11-02T16:18:02.420Z,3.10
2018-11-02T16:20:31.464Z,3.00
2018-11-02T16:23:00.492Z,2.57
2018-11-02T16:25:29.676Z,2.27
2018-11-02T16:27:58.880Z,2.87
2018-11-02T16:30:30.052Z,2.87
2018-11-02T16:32:59.170Z,4.40
2018-11-02T16:35:28.555Z,4.03
2018-11-02T16:37:57.796Z,3.47
2018-11-02T16:40:26.995Z,3.00
2018-11-02T16:42:56.207Z,2.80
2018-11-02T16:45:25.331Z,3.00
2018-11-02T16:47:54.530Z,2.83
2018-11-02T16:50:23.708Z,3.13
2018-11-02T16:52:52.720Z,2.90
2018-11-02T16:55:21.938Z,4.47
2018-11-02T16:57:51.219Z,3.60
2018-11-02T17:00:20.259Z,2.97
2018-11-02T17:02:49.737Z,2.50
2018-11-02T17:05:19.091Z,3.13
2018-11-02T17:07:48.358Z,4.00
2018-11-02T17:10:17.653Z,2.47
2018-11-02T17:12:46.736Z,1.90
2018-11-02T17:15:15.998Z,3.03
2018-11-02T17:17:45.206Z,2.40
2018-11-02T17:20:17.317Z,2.27
2018-11-02T17:22:46.857Z,1.87
2018-11-02T17:25:16.036Z,2.40
2018-11-02T17:27:45.109Z,1.80
2018-11-02T17:30:15.632Z,2.00
2018-11-02T17:32:44.800Z,2.10
2018-11-02T17:35:13.908Z,1.60
2018-11-02T17:37:43.152Z,2.10
2018-11-02T17:40:13.673Z,2.17
2018-11-02T17:42:43.340Z,1.93
2018-11-02T17:45:12.522Z,1.83
2018-11-02T17:47:42.442Z,2.60
2018-11-02T17:50:12.643Z,3.07
2018-11-02T17:52:41.953Z,2.63
2018-11-02T17:55:11.336Z,1.93
2018-11-02T17:57:40.868Z,2.23
2018-11-02T18:00:12.021Z,2.73
2018-11-02T18:02:41.552Z,4.10
2018-11-02T18:05:11.319Z,3.17
2018-11-02T18:07:40.822Z,3.30
2018-11-02T18:10:11.401Z,3.53
2018-11-02T18:12:40.798Z,2.53
2018-11-02T18:15:10.569Z,2.70
2018-11-02T18:17:39.785Z,2.27
2018-11-02T18:20:11.830Z,3.17
2018-11-02T18:22:41.045Z,2.90
2018-11-02T18:25:10.443Z,2.63
2018-11-02T18:27:39.886Z,2.37
2018-11-02T18:30:10.228Z,3.07
2018-11-02T18:32:42.637Z,2.60
2018-11-02T18:35:11.468Z,2.97
2018-11-02T18:37:40.270Z,2.50
2018-11-02T18:40:10.265Z,3.67
2018-11-02T18:42:39.060Z,2.37
2018-11-02T18:45:09.901Z,2.23
2018-11-02T18:47:44.722Z,2.13
2018-11-02T18:50:15.080Z,2.37
2018-11-02T18:52:44.173Z,3.20
2018-11-02T18:55:13.000Z,2.63
2018-11-02T18:57:41.840Z,2.20
2018-11-02T19:00:11.290Z,2.00
2018-11-02T19:02:40.284Z,2.10
2018-11-02T19:05:11.066Z,2.37
2018-11-02T19:07:39.966Z,2.20
2018-11-02T19:10:11.382Z,2.90
2018-11-02T19:12:40.616Z,2.83
2018-11-02T19:15:11.922Z,2.40
2018-11-02T19:17:41.117Z,3.03
2018-11-02T19:20:10.771Z,2.70
2018-11-02T19:22:39.538Z,2.57
2018-11-02T19:25:10.627Z,2.77
2018-11-02T19:27:40.017Z,3.03
2018-11-02T19:30:10.229Z,2.67
2018-11-02T19:32:39.125Z,2.43
2018-11-02T19:35:08.603Z,2.30
2018-11-02T19:37:37.147Z,2.40
2018-11-02T19:40:08.253Z,1.77
2018-11-02T19:42:37.050Z,2.13
2018-11-02T19:45:06.602Z,2.43
2018-11-02T19:47:40.697Z,2.37
2018-11-02T19:50:11.263Z,2.70
2018-11-02T19:52:40.196Z,2.60
2018-11-02T19:55:10.082Z,2.90
2018-11-02T19:57:39.001Z,2.50
2018-11-02T20:00:09.785Z,3.40
2018-11-02T20:02:40.589Z,2.60
2018-11-02T20:05:10.981Z,2.87
2018-11-02T20:07:40.376Z,2.67
2018-11-02T20:10:10.016Z,3.30
2018-11-02T20:12:38.959Z,3.40
2018-11-02T20:15:08.689Z,2.93
2018-11-02T20:17:38.334Z,3.13
2018-11-02T20:20:08.229Z,2.83
2018-11-02T20:22:37.252Z,2.70
2018-11-02T20:25:07.426Z,2.97
2018-11-02T20:27:36.358Z,2.63
2018-11-02T20:30:07.229Z,3.03
2018-11-02T20:32:36.106Z,3.00
2018-11-02T20:35:05.396Z,2.60
2018-11-02T20:37:34.282Z,3.47
2018-11-02T20:40:03.049Z,2.80
2018-11-02T20:42:31.856Z,2.90
2018-11-02T20:45:00.765Z,3.00
2018-11-02T20:47:33.825Z,3.60
2018-11-02T20:50:02.929Z,3.37
2018-11-02T20:52:31.681Z,2.70
2018-11-02T20:55:00.466Z,2.93
2018-11-02T20:57:29.232Z,2.83
2018-11-02T20:59:58.021Z,2.83
2018-11-02T21:02:26.826Z,2.53
2018-11-02T21:04:55.653Z,2.63
2018-11-02T21:07:24.673Z,2.63
2018-11-02T21:09:53.358Z,3.50
2018-11-02T21:12:23.359Z,3.47
2018-11-02T21:14:52.331Z,2.87
2018-11-02T21:17:21.242Z,2.80
2018-11-02T21:19:51.213Z,2.90
2018-11-02T21:22:20.700Z,3.33
2018-11-02T21:24:49.826Z,4.17
2018-11-02T21:27:19.908Z,3.47
2018-11-02T21:29:48.781Z,3.07
2018-11-02T21:32:18.101Z,3.07
2018-11-02T21:34:48.250Z,3.73
2018-11-02T21:37:21.419Z,4.20
2018-11-02T21:39:50.513Z,3.87
2018-11-02T21:42:19.325Z,3.23
2018-11-02T21:44:48.115Z,2.70
2018-11-02T21:47:16.950Z,2.97
2018-11-02T21:49:45.761Z,3.33
2018-11-02T21:52:14.588Z,2.80
2018-11-02T21:54:44.086Z,3.00
2018-11-02T21:57:13.073Z,3.23
2018-11-02T21:59:41.886Z,3.20
2018-11-02T22:02:10.678Z,3.10
2018-11-02T22:04:39.530Z,3.43
2018-11-02T22:07:08.313Z,3.30
2018-11-02T22:09:37.131Z,4.20
2018-11-02T22:12:05.910Z,4.00
2018-11-02T22:14:34.685Z,4.10
2018-11-02T22:17:04.536Z,4.33
2018-11-02T22:19:33.468Z,4.10
2018-11-02T22:22:02.202Z,4.33
2018-11-02T22:24:30.973Z,5.40
2018-11-02T22:26:59.745Z,4.63
2018-11-02T22:29:28.522Z,4.93
2018-11-02T22:31:57.443Z,4.73
2018-11-02T22:34:26.221Z,5.60
2018-11-02T22:36:55.012Z,5.07
2018-11-02T22:39:23.784Z,4.87
2018-11-02T22:41:52.589Z,4.97
2018-11-02T22:44:21.388Z,4.60
2018-11-02T22:46:50.192Z,5.00
2018-11-02T22:49:19.097Z,4.07
2018-11-02T22:51:47.932Z,5.20
2018-11-02T22:54:16.765Z,5.30
2018-11-02T22:56:45.537Z,4.97
2018-11-02T22:59:14.311Z,5.23
2018-11-02T23:01:43.095Z,5.03
2018-11-02T23:04:11.870Z,4.13
2018-11-02T23:06:41.894Z,4.70
2018-11-02T23:09:10.678Z,5.00
2018-11-02T23:11:39.468Z,4.17
2018-11-02T23:14:08.442Z,5.00
2018-11-02T23:16:37.345Z,5.17
2018-11-02T23:19:06.358Z,4.70
2018-11-02T23:21:35.201Z,4.90
2018-11-02T23:24:04.186Z,5.00
2018-11-02T23:26:33.033Z,4.67
2018-11-02T23:29:01.837Z,5.53
2018-11-02T23:31:30.644Z,5.30
2018-11-02T23:33:59.607Z,5.53
2018-11-02T23:36:28.399Z,5.63
2018-11-02T23:38:57.254Z,5.27
2018-11-02T23:41:26.208Z,5.80
2018-11-02T23:43:55.002Z,6.47
2018-11-02T23:46:23.796Z,5.80
2018-11-02T23:48:52.609Z,6.07
2018-11-02T23:51:21.511Z,5.63
2018-11-02T23:53:50.312Z,5.57
2018-11-02T23:56:19.096Z,5.97
2018-11-02T23:58:47.860Z,5.87
